Time;durP1;ratioP1;P1;durP2;ratioP2;P2;SDS_P1;SDS_P2;PMS_P1;PMS_P2;Temp;Humidity;BMP_temperature;BMP_pressure;BME280_temperature;BME280_humidity;BME280_pressure;Samples;Min_cycle;Max_cycle;Signal;HPM_P1;HPM_P2
2022/05/05 00:01:43;;;;;;;20.30;9.97;;;9.70;97.20;;;;;;4995693;28;20461;-80
2022/05/05 00:04:10;;;;;;;20.30;11.43;;;9.80;98.30;;;;;;5003218;28;20474;-80
2022/05/05 00:06:37;;;;;;;14.53;11.30;;;9.90;99.90;;;;;;5014694;28;20457;-80
2022/05/05 00:09:04;;;;;;;20.23;11.53;;;10.00;99.90;;;;;;5008527;28;20814;-83
2022/05/05 00:14:27;;;;;;;17.97;12.00;;;10.10;99.40;;;;;;5021001;23;20496;-80
2022/05/05 00:16:56;;;;;;;27.30;13.40;;;10.20;99.90;;;;;;4997312;28;20489;-80
2022/05/05 00:19:24;;;;;;;20.80;13.40;;;10.20;99.90;;;;;;4985565;28;20457;-80
2022/05/05 00:21:50;;;;;;;16.20;12.27;;;10.20;99.90;;;;;;4977678;28;20833;-80
2022/05/05 00:24:17;;;;;;;19.43;12.17;;;10.30;99.90;;;;;;4986894;28;20998;-80
2022/05/05 00:26:44;;;;;;;21.97;12.53;;;10.40;99.90;;;;;;4997834;28;20862;-81
2022/05/05 00:29:11;;;;;;;18.53;12.73;;;10.40;99.90;;;;;;4988665;28;20454;-80
2022/05/05 00:31:39;;;;;;;20.97;13.40;;;10.50;99.40;;;;;;4978456;28;20467;-80
2022/05/05 00:34:06;;;;;;;20.30;11.73;;;10.50;99.50;;;;;;4983894;28;20501;-81
2022/05/05 00:36:33;;;;;;;20.60;10.90;;;10.60;98.60;;;;;;4997251;28;20536;-81
2022/05/05 00:39:00;;;;;;;21.73;11.63;;;10.50;97.80;;;;;;4986678;28;20455;-80
2022/05/05 00:41:26;;;;;;;18.40;11.57;;;10.60;98.80;;;;;;4977934;28;20843;-80
2022/05/05 00:43:53;;;;;;;19.87;11.90;;;10.70;97.40;;;;;;4985325;28;20477;-81
2022/05/05 00:46:20;;;;;;;18.73;11.83;;;10.70;96.80;;;;;;4997839;28;20446;-80
2022/05/05 00:48:48;;;;;;;20.33;11.17;;;10.70;97.50;;;;;;4989430;28;20459;-80
2022/05/05 00:51:15;;;;;;;21.80;10.63;;;10.80;96.90;;;;;;4978424;28;20462;-80
2022/05/05 00:53:41;;;;;;;27.17;11.00;;;10.80;95.10;;;;;;4977847;28;20481;-82
2022/05/05 00:56:11;;;;;;;20.87;11.93;;;10.80;95.50;;;;;;4977948;28;20870;-80
2022/05/05 00:58:39;;;;;;;24.50;12.43;;;10.80;98.00;;;;;;4979829;28;20451;-80
2022/05/05 01:01:06;;;;;;;16.13;9.50;;;10.80;97.90;;;;;;4978403;28;20455;-80
2022/05/05 01:03:35;;;;;;;24.93;11.30;;;10.80;96.00;;;;;;4977392;28;20461;-80
2022/05/05 01:06:05;;;;;;;18.00;11.13;;;10.80;96.40;;;;;;4977026;28;20972;-81
2022/05/05 01:08:34;;;;;;;21.40;10.00;;;10.70;99.40;;;;;;4978111;28;20542;-80
2022/05/05 01:11:00;;;;;;;17.07;10.50;;;10.70;96.90;;;;;;4997491;28;20457;-80
2022/05/05 01:13:28;;;;;;;19.03;11.33;;;10.80;94.60;;;;;;4994880;28;20457;-80
2022/05/05 01:15:56;;;;;;;18.80;11.00;;;10.80;95.70;;;;;;4977915;28;20921;-80
2022/05/05 01:18:23;;;;;;;23.17;11.73;;;10.80;97.50;;;;;;4975967;28;20450;-80
2022/05/05 01:20:51;;;;;;;25.13;12.33;;;10.80;95.90;;;;;;4997096;28;20462;-81
2022/05/05 01:23:20;;;;;;;19.93;10.80;;;10.70;95.90;;;;;;4996990;28;20465;-80
2022/05/05 01:28:33;;;;;;;23.10;11.50;;;10.80;94.80;;;;;;4976964;28;20438;-81
2022/05/05 01:31:02;;;;;;;20.17;11.00;;;10.80;95.00;;;;;;4957778;28;20455;-81
2022/05/05 01:33:30;;;;;;;18.83;10.60;;;10.90;94.40;;;;;;4958112;29;20470;-80
2022/05/05 01:35:58;;;;;;;19.60;10.83;;;10.90;93.50;;;;;;4996141;28;20943;-80
2022/05/05 01:38:30;;;;;;;20.90;11.00;;;10.90;92.10;;;;;;4996254;28;20488;-80
2022/05/05 01:40:57;;;;;;;18.20;11.07;;;11.00;92.40;;;;;;4995866;28;20458;-81
2022/05/05 01:43:23;;;;;;;29.90;12.07;;;11.00;91.40;;;;;;4993112;28;20455;-80
2022/05/05 01:45:50;;;;;;;17.03;10.20;;;11.10;91.10;;;;;;4977658;28;20458;-80
2022/05/05 01:48:17;;;;;;;25.10;10.77;;;11.10;90.20;;;;;;4978370;28;20458;-80
2022/05/05 01:50:44;;;;;;;17.80;10.77;;;11.10;90.20;;;;;;4996539;28;20458;-80
2022/05/05 01:53:11;;;;;;;23.10;10.93;;;11.00;87.30;;;;;;4995776;28;20490;-80
2022/05/05 01:55:39;;;;;;;19.47;9.23;;;11.10;85.60;;;;;;4976839;28;20862;-80
2022/05/05 01:58:07;;;;;;;26.83;10.10;;;11.10;85.00;;;;;;4981235;28;20891;-79
2022/05/05 02:00:34;;;;;;;21.70;9.43;;;11.10;85.30;;;;;;4980363;28;20462;-80
2022/05/05 02:03:01;;;;;;;22.20;9.83;;;11.10;85.60;;;;;;4982381;28;20463;-80
2022/05/05 02:05:28;;;;;;;13.10;7.90;;;11.10;91.60;;;;;;5000295;28;20477;-81
2022/05/05 02:07:55;;;;;;;23.93;8.20;;;11.00;91.40;;;;;;4999112;28;20453;-80
2022/05/05 02:10:21;;;;;;;17.47;5.97;;;11.00;91.40;;;;;;4979809;28;20470;-80
2022/05/05 02:12:51;;;;;;;31.67;6.77;;;11.00;91.70;;;;;;4980941;28;20458;-80
2022/05/05 02:15:17;;;;;;;15.33;7.63;;;11.00;91.40;;;;;;4960895;29;20551;-80
2022/05/05 02:17:45;;;;;;;10.80;5.33;;;10.90;92.50;;;;;;4961265;29;20460;-80
2022/05/05 02:20:13;;;;;;;10.13;6.17;;;10.90;91.70;;;;;;4980035;28;20509;-82
2022/05/05 02:22:40;;;;;;;16.23;6.10;;;10.90;91.60;;;;;;4980764;28;20481;-81
2022/05/05 02:25:07;;;;;;;14.20;7.13;;;10.90;92.20;;;;;;4996969;28;20469;-81
2022/05/05 02:27:51;;;;;;;11.60;7.10;;;10.80;93.80;;;;;;4999277;28;20457;-80
2022/05/05 02:30:19;;;;;;;17.90;7.70;;;10.80;93.70;;;;;;4980527;28;20451;-81
2022/05/05 02:32:46;;;;;;;13.47;7.17;;;10.80;93.30;;;;;;4979653;28;20454;-80
2022/05/05 02:35:13;;;;;;;15.10;8.67;;;10.80;93.50;;;;;;4980288;28;20471;-81
2022/05/05 02:40:24;;;;;;;13.67;6.80;;;10.80;91.30;;;;;;4999300;28;20511;-81
2022/05/05 02:42:52;;;;;;;16.73;7.10;;;10.70;92.50;;;;;;4998413;28;20597;-81
2022/05/05 02:45:19;;;;;;;20.00;7.53;;;10.70;93.90;;;;;;4980050;28;20471;-81
2022/05/05 02:47:47;;;;;;;16.30;8.20;;;10.60;92.10;;;;;;4979930;28;20462;-81
2022/05/05 02:50:14;;;;;;;17.53;7.40;;;10.50;92.40;;;;;;4998590;28;20544;-81
2022/05/05 02:52:41;;;;;;;12.07;6.67;;;10.50;92.30;;;;;;5000212;28;20458;-80
2022/05/05 02:55:07;;;;;;;14.03;7.33;;;10.50;92.30;;;;;;5000576;28;20482;-81
2022/05/05 02:57:35;;;;;;;13.60;7.00;;;10.40;91.10;;;;;;5000291;28;20529;-82
2022/05/05 03:00:04;;;;;;;12.67;6.50;;;10.30;91.10;;;;;;4980924;28;20459;-81
2022/05/05 03:02:31;;;;;;;10.03;6.63;;;10.30;91.50;;;;;;4978873;28;20463;-81
2022/05/05 03:04:58;;;;;;;13.17;6.67;;;10.30;93.70;;;;;;4979524;28;20475;-80
2022/05/05 03:07:25;;;;;;;15.63;8.53;;;10.20;95.30;;;;;;4979314;28;20462;-80
2022/05/05 03:09:52;;;;;;;11.23;6.20;;;10.20;97.00;;;;;;4978768;28;20459;-81
2022/05/05 03:12:19;;;;;;;14.13;7.07;;;10.20;97.70;;;;;;4979442;28;20455;-82
2022/05/05 03:14:47;;;;;;;15.87;7.40;;;10.20;97.40;;;;;;4996777;28;20478;-81
2022/05/05 03:17:15;;;;;;;11.07;6.57;;;10.00;99.60;;;;;;4998378;28;20505;-81
2022/05/05 03:19:42;;;;;;;18.03;9.07;;;10.10;99.90;;;;;;4981352;28;20451;-81
2022/05/05 03:22:09;;;;;;;22.43;9.13;;;10.00;99.90;;;;;;4979446;28;20459;-81
2022/05/05 03:24:36;;;;;;;12.20;8.37;;;10.00;99.90;;;;;;4994079;28;21049;-80
2022/05/05 03:27:04;;;;;;;16.33;9.57;;;10.00;99.90;;;;;;4998784;28;20454;-81
2022/05/05 03:29:32;;;;;;;22.43;9.90;;;9.80;99.90;;;;;;4979169;28;20453;-82
2022/05/05 03:31:58;;;;;;;13.60;10.07;;;9.80;99.90;;;;;;4984148;28;20819;-81
2022/05/05 03:34:26;;;;;;;12.77;8.70;;;9.70;99.90;;;;;;4991329;28;20467;-81
2022/05/05 03:36:56;;;;;;;17.83;12.47;;;9.70;99.90;;;;;;4997344;28;20478;-81
2022/05/05 03:39:23;;;;;;;20.97;15.77;;;9.60;99.90;;;;;;4985080;28;20455;-81
2022/05/05 03:41:50;;;;;;;22.93;20.90;;;9.60;99.90;;;;;;4976295;28;20459;-81
2022/05/05 03:44:16;;;;;;;23.37;21.67;;;9.50;99.90;;;;;;4979070;28;20526;-83
2022/05/05 03:46:43;;;;;;;26.83;24.80;;;9.60;99.90;;;;;;4979339;28;20474;-82
2022/05/05 03:49:10;;;;;;;23.27;21.47;;;9.60;99.90;;;;;;4976793;28;20892;-81
2022/05/05 03:51:45;;;;;;;31.90;29.80;;;9.60;99.90;;;;;;4990801;28;20824;-80
2022/05/05 03:54:12;;;;;;;40.37;38.07;;;9.60;99.90;;;;;;4993935;28;20501;-80
2022/05/05 03:56:46;;;;;;;62.50;58.70;;;9.50;99.90;;;;;;4992121;28;20450;-81
2022/05/05 03:59:13;;;;;;;67.47;63.93;;;9.50;99.90;;;;;;4977192;28;21053;-81
2022/05/05 04:01:40;;;;;;;75.83;72.03;;;9.50;99.90;;;;;;4977545;28;20566;-81
2022/05/05 04:04:07;;;;;;;72.00;68.27;;;9.50;99.90;;;;;;4975648;28;20475;-81
2022/05/05 04:06:33;;;;;;;96.87;92.23;;;9.50;99.90;;;;;;4978263;28;20578;-81
2022/05/05 04:09:03;;;;;;;150.67;144.37;;;9.50;99.90;;;;;;4976859;28;20494;-82
2022/05/05 04:11:30;;;;;;;192.00;184.77;;;9.40;99.90;;;;;;4977073;28;20463;-81
2022/05/05 04:13:58;;;;;;;196.97;189.43;;;9.40;99.90;;;;;;4978028;28;20490;-81
2022/05/05 04:16:24;;;;;;;170.07;162.80;;;9.40;99.90;;;;;;4976991;28;20458;-83
2022/05/05 04:18:53;;;;;;;185.27;177.97;;;9.40;99.90;;;;;;4975831;28;20455;-81
2022/05/05 04:21:20;;;;;;;160.90;153.80;;;9.40;99.90;;;;;;4980627;28;20463;-82
2022/05/05 04:23:47;;;;;;;170.97;164.67;;;9.40;99.90;;;;;;4984130;28;20479;-81
2022/05/05 04:26:16;;;;;;;136.50;130.90;;;9.40;99.90;;;;;;4983349;28;20479;-82
2022/05/05 04:28:45;;;;;;;125.17;119.97;;;9.30;99.90;;;;;;4992295;28;20548;-81
2022/05/05 04:31:14;;;;;;;149.47;143.40;;;9.10;99.90;;;;;;4989299;28;20825;-81
2022/05/05 04:33:42;;;;;;;143.60;137.63;;;9.10;99.90;;;;;;4974222;28;20479;-80
2022/05/05 04:36:09;;;;;;;172.53;165.93;;;9.10;99.90;;;;;;4979575;28;20454;-81
2022/05/05 04:38:36;;;;;;;205.20;197.83;;;9.10;99.90;;;;;;4995089;28;20454;-82
2022/05/05 04:41:03;;;;;;;263.47;253.40;;;9.10;99.90;;;;;;4995566;28;20451;-82
2022/05/05 04:43:31;;;;;;;292.73;281.97;;;9.10;99.90;;;;;;4990941;28;20455;-81
2022/05/05 04:45:58;;;;;;;271.90;262.13;;;9.10;99.90;;;;;;4977924;28;20475;-83
2022/05/05 04:48:25;;;;;;;277.40;267.23;;;9.10;99.90;;;;;;4993101;28;20458;-80
2022/05/05 04:50:51;;;;;;;249.43;240.03;;;9.20;99.90;;;;;;4997386;28;20839;-81
2022/05/05 04:53:18;;;;;;;263.73;254.03;;;9.20;99.90;;;;;;4996583;28;20458;-81
2022/05/05 04:55:45;;;;;;;299.67;288.37;;;9.30;99.90;;;;;;4994340;28;20461;-82
2022/05/05 04:58:12;;;;;;;293.13;282.13;;;9.30;99.90;;;;;;4980931;28;20595;-81
2022/05/05 05:00:40;;;;;;;269.90;259.80;;;9.40;99.90;;;;;;4997552;28;20800;-82
2022/05/05 05:03:32;;;;;;;280.67;268.57;;;9.50;99.90;;;;;;4996652;28;20455;-81
2022/05/05 05:05:54;;;;;;;261.40;251.20;;;9.70;99.90;;;;;;4969386;28;20951;-81
2022/05/05 05:08:20;;;;;;;221.77;212.57;;;9.70;99.90;;;;;;4977174;28;20455;-81
2022/05/05 05:10:47;;;;;;;200.83;192.93;;;9.90;99.90;;;;;;4981519;28;20454;-81
2022/05/05 05:13:14;;;;;;;163.47;157.07;;;10.10;99.90;;;;;;4996674;28;20484;-81
2022/05/05 05:15:45;;;;;;;130.93;124.97;;;10.10;99.90;;;;;;4979170;28;20995;-81
2022/05/05 05:18:12;;;;;;;103.53;98.00;;;10.30;99.90;;;;;;4996342;28;20439;-81
2022/05/05 05:20:42;;;;;;;80.87;76.57;;;10.40;99.90;;;;;;4996549;28;20805;-81
2022/05/05 05:23:09;;;;;;;64.43;60.50;;;10.50;99.90;;;;;;4995824;28;20460;-82
2022/05/05 05:25:36;;;;;;;45.00;41.67;;;10.80;99.90;;;;;;4985489;28;20475;-81
2022/05/05 05:28:05;;;;;;;21.93;18.13;;;11.00;99.90;;;;;;4976679;28;20563;-81
2022/05/05 05:30:33;;;;;;;24.67;14.33;;;11.10;99.90;;;;;;4976290;28;20466;-81
2022/05/05 05:33:01;;;;;;;25.47;13.53;;;11.30;99.90;;;;;;4996913;28;20514;-82
2022/05/05 05:35:28;;;;;;;21.13;11.60;;;11.60;99.90;;;;;;4999185;28;20555;-81
2022/05/05 05:37:54;;;;;;;20.53;10.97;;;11.90;99.90;;;;;;4992523;28;20836;-81
2022/05/05 05:40:21;;;;;;;21.27;11.53;;;12.30;98.60;;;;;;4989127;28;20477;-83
2022/05/05 05:42:48;;;;;;;21.60;10.13;;;12.50;93.00;;;;;;4984902;28;20457;-81
2022/05/05 05:45:14;;;;;;;20.30;9.83;;;12.70;90.00;;;;;;4993345;28;20469;-81
2022/05/05 05:47:44;;;;;;;17.00;9.53;;;13.00;78.30;;;;;;4988941;28;20470;-79
2022/05/05 05:50:12;;;;;;;21.57;10.40;;;13.40;72.70;;;;;;4980950;28;20455;-81
2022/05/05 05:52:41;;;;;;;24.60;11.50;;;13.80;68.40;;;;;;4979540;28;20462;-82
2022/05/05 05:55:08;;;;;;;22.10;11.00;;;14.10;62.70;;;;;;4981775;28;20482;-81
2022/05/05 05:57:35;;;;;;;19.93;10.30;;;14.60;60.50;;;;;;4996761;28;20459;-81
2022/05/05 06:00:02;;;;;;;19.37;10.80;;;14.60;55.20;;;;;;4997083;28;20451;-81
2022/05/05 06:05:15;;;;;;;21.67;11.50;;;14.80;53.70;;;;;;4998867;28;20975;-81
2022/05/05 06:07:42;;;;;;;25.50;11.33;;;14.80;52.60;;;;;;4983693;28;20480;-81
2022/05/05 06:10:09;;;;;;;20.03;10.27;;;14.80;50.50;;;;;;4994116;28;20462;-81
2022/05/05 06:12:36;;;;;;;21.97;9.73;;;14.80;49.80;;;;;;4999133;28;20454;-80
2022/05/05 06:15:03;;;;;;;21.27;9.87;;;14.90;48.50;;;;;;5020448;23;20865;-77
2022/05/05 06:17:30;;;;;;;26.00;10.80;;;14.80;48.40;;;;;;4997726;28;20452;-79
2022/05/05 06:19:56;;;;;;;23.90;10.37;;;14.90;50.00;;;;;;4999824;28;20453;-81
2022/05/05 06:22:24;;;;;;;24.13;8.90;;;14.80;44.90;;;;;;5000702;28;20458;-79
2022/05/05 06:24:51;;;;;;;18.10;7.80;;;14.80;44.10;;;;;;4997012;28;20480;-80
2022/05/05 06:27:18;;;;;;;20.67;9.00;;;14.80;39.50;;;;;;4999068;28;20484;-80
2022/05/05 06:29:45;;;;;;;22.30;9.20;;;14.90;41.80;;;;;;4999992;28;20463;-81
2022/05/05 06:32:11;;;;;;;19.93;8.73;;;15.20;39.90;;;;;;5001054;28;20448;-80
2022/05/05 06:34:38;;;;;;;15.47;7.40;;;15.20;37.50;;;;;;5000109;28;20478;-81
2022/05/05 06:37:05;;;;;;;16.50;7.50;;;15.30;36.20;;;;;;4999494;28;20461;-81
2022/05/05 06:39:33;;;;;;;16.67;8.17;;;15.60;37.00;;;;;;4996600;28;21022;-80
2022/05/05 06:42:01;;;;;;;14.90;7.83;;;15.90;33.70;;;;;;4996621;28;20457;-79
2022/05/05 06:44:28;;;;;;;16.63;8.40;;;16.00;35.20;;;;;;4996525;28;20844;-80
2022/05/05 06:46:55;;;;;;;22.80;9.40;;;15.90;32.60;;;;;;4994145;28;20484;-80
2022/05/05 06:49:22;;;;;;;37.43;9.13;;;15.90;31.40;;;;;;4980470;28;20494;-79
2022/05/05 06:51:49;;;;;;;19.90;7.40;;;15.90;31.50;;;;;;4975991;28;20548;-80
2022/05/05 06:54:16;;;;;;;14.80;8.40;;;16.00;31.50;;;;;;4974621;28;20483;-81
2022/05/05 06:56:44;;;;;;;17.20;8.57;;;16.10;31.60;;;;;;4975402;28;20458;-80
2022/05/05 06:59:11;;;;;;;19.87;9.10;;;16.20;29.80;;;;;;4974920;28;20829;-80
2022/05/05 07:01:53;;;;;;;21.63;9.67;;;16.10;29.80;;;;;;4974626;28;20475;-80
2022/05/05 07:07:04;;;;;;;20.13;8.27;;;16.20;31.00;;;;;;4975459;28;20478;-80
2022/05/05 07:12:17;;;;;;;19.85;9.13;;;16.10;30.10;;;;;;4976617;28;20962;-80
2022/05/05 07:14:44;;;;;;;15.90;7.57;;;16.30;30.80;;;;;;4977382;28;20716;-80
2022/05/05 07:17:11;;;;;;;16.77;7.73;;;16.30;28.90;;;;;;4978747;28;20459;-81
2022/05/05 07:19:38;;;;;;;21.97;8.40;;;16.20;26.70;;;;;;4976639;28;20465;-80
2022/05/05 07:22:05;;;;;;;18.10;8.27;;;16.30;29.30;;;;;;4978940;28;20482;-80
2022/05/05 07:24:32;;;;;;;14.73;7.93;;;16.10;28.90;;;;;;4977754;28;20477;-79
2022/05/05 07:26:59;;;;;;;16.43;8.07;;;16.10;24.60;;;;;;4975231;28;20505;-81
2022/05/05 07:29:27;;;;;;;18.00;8.37;;;16.10;24.40;;;;;;4976539;28;20454;-80
2022/05/05 07:31:54;;;;;;;13.83;7.33;;;16.10;27.90;;;;;;4976236;28;20469;-80
2022/05/05 07:34:21;;;;;;;19.27;7.80;;;16.00;26.10;;;;;;4976886;28;20489;-81
2022/05/05 07:36:48;;;;;;;16.07;7.07;;;16.00;28.80;;;;;;4977024;28;20941;-79
2022/05/05 07:39:15;;;;;;;15.37;7.47;;;16.20;26.10;;;;;;4979586;28;20458;-80
2022/05/05 07:41:42;;;;;;;14.73;7.23;;;15.90;26.70;;;;;;4980096;28;20458;-81
2022/05/05 07:44:09;;;;;;;15.57;8.30;;;16.20;28.20;;;;;;4977215;28;20559;-81
2022/05/05 07:46:37;;;;;;;15.87;7.67;;;16.10;27.60;;;;;;4974708;28;20553;-82
2022/05/05 07:49:06;;;;;;;12.67;6.90;;;16.40;26.80;;;;;;4974871;28;20462;-80
2022/05/05 07:51:33;;;;;;;14.10;5.80;;;16.30;24.40;;;;;;4975077;28;20433;-81
2022/05/05 07:56:44;;;;;;;13.87;6.47;;;16.50;23.40;;;;;;4976786;28;20465;-79
2022/05/05 07:59:12;;;;;;;20.40;7.43;;;16.60;24.60;;;;;;4974859;28;20470;-79
2022/05/05 08:01:40;;;;;;;14.60;6.23;;;17.00;22.00;;;;;;4975507;28;20463;-79
2022/05/05 08:04:07;;;;;;;11.33;5.83;;;17.10;21.50;;;;;;4975911;28;20883;-80
2022/05/05 08:06:34;;;;;;;16.33;6.77;;;17.30;20.20;;;;;;4974887;28;21004;-80
2022/05/05 08:09:00;;;;;;;13.83;6.90;;;17.40;19.70;;;;;;4973521;28;20481;-80
2022/05/05 08:11:28;;;;;;;14.10;6.63;;;17.70;18.00;;;;;;4973856;28;20963;-80
2022/05/05 08:13:55;;;;;;;10.77;6.30;;;18.20;16.90;;;;;;4974292;28;20462;-80
2022/05/05 08:16:22;;;;;;;18.27;8.23;;;18.60;15.50;;;;;;4974564;28;20509;-80
2022/05/05 08:18:50;;;;;;;14.33;6.37;;;18.70;14.20;;;;;;4973856;28;20464;-81
2022/05/05 08:21:17;;;;;;;14.77;7.30;;;18.40;13.30;;;;;;4974825;28;20468;-80
2022/05/05 08:23:44;;;;;;;13.70;7.67;;;18.90;13.80;;;;;;4974545;28;20817;-80
2022/05/05 08:28:55;;;;;;;14.73;6.90;;;18.30;12.20;;;;;;4973436;28;21045;-80
2022/05/05 08:31:21;;;;;;;18.57;7.17;;;18.20;14.70;;;;;;4974213;28;20816;-80
2022/05/05 08:33:50;;;;;;;10.37;5.57;;;18.40;15.20;;;;;;4974599;28;20461;-80
2022/05/05 08:36:16;;;;;;;13.80;6.70;;;18.20;14.50;;;;;;4974380;28;20501;-80
2022/05/05 08:38:45;;;;;;;12.63;5.80;;;18.20;12.70;;;;;;4973343;28;20457;-80
2022/05/05 08:41:13;;;;;;;15.23;6.33;;;18.10;13.30;;;;;;4974039;28;20885;-81
2022/05/05 08:43:40;;;;;;;10.50;6.70;;;18.30;12.10;;;;;;4974196;28;20456;-80
2022/05/05 08:46:13;;;;;;;11.07;6.57;;;18.70;11.30;;;;;;4974035;28;20700;-80
2022/05/05 08:48:40;;;;;;;12.80;5.50;;;18.70;10.00;;;;;;4973571;28;20488;-80
2022/05/05 08:51:15;;;;;;;10.10;5.90;;;18.10;9.60;;;;;;4972350;28;20460;-80
2022/05/05 08:53:49;;;;;;;16.50;6.10;;;18.20;9.80;;;;;;4973911;28;20472;-80
2022/05/05 08:56:16;;;;;;;11.43;5.00;;;18.70;9.30;;;;;;4973705;28;20456;-80
2022/05/05 08:58:43;;;;;;;18.13;6.70;;;19.20;7.90;;;;;;4973003;28;20459;-80
2022/05/05 09:01:10;;;;;;;9.17;5.13;;;19.50;4.20;;;;;;4974321;28;20488;-80
2022/05/05 09:03:37;;;;;;;9.80;4.70;;;19.30;3.00;;;;;;4973760;28;20469;-80
2022/05/05 09:06:04;;;;;;;9.87;5.40;;;19.90;3.00;;;;;;4973284;28;20483;-81
2022/05/05 09:08:34;;;;;;;14.47;6.43;;;20.10;1.00;;;;;;4972792;28;20486;-80
2022/05/05 09:11:02;;;;;;;10.93;5.90;;;20.30;4.70;;;;;;4973563;28;20456;-80
2022/05/05 09:13:31;;;;;;;11.67;6.00;;;20.00;3.00;;;;;;4973397;28;20841;-80
2022/05/05 09:15:58;;;;;;;12.50;6.37;;;19.50;4.20;;;;;;4973202;28;20498;-80
2022/05/05 09:18:28;;;;;;;10.70;6.07;;;19.70;1.30;;;;;;4972719;28;20526;-81
2022/05/05 09:20:56;;;;;;;15.98;7.60;;;19.90;1.00;;;;;;4972901;28;20942;-82
2022/05/05 09:23:31;;;;;;;11.73;6.10;;;20.20;1.00;;;;;;4974232;28;20208;-83
2022/05/05 09:26:00;;;;;;;16.98;7.30;;;20.50;1.00;;;;;;4972531;28;20956;-82
2022/05/05 09:28:30;;;;;;;14.13;6.57;;;20.60;3.80;;;;;;4973220;28;20249;-83
2022/05/05 09:31:04;;;;;;;11.33;7.00;;;20.50;1.00;;;;;;4971749;28;21130;-83
2022/05/05 09:33:42;;;;;;;12.40;6.90;;;20.40;1.00;;;;;;4973529;28;20514;-81
2022/05/05 09:36:10;;;;;;;15.53;6.43;;;20.80;1.00;;;;;;4973945;28;20479;-83
2022/05/05 09:38:53;;;;;;;16.20;6.83;;;21.30;1.00;;;;;;4973476;28;20489;-84
2022/05/05 09:41:22;;;;;;;13.80;7.23;;;21.60;1.00;;;;;;4974396;28;20464;-83
2022/05/05 09:43:49;;;;;;;13.27;7.20;;;22.60;1.00;;;;;;4974144;28;20458;-82
2022/05/05 09:46:40;;;;;;;8.63;5.27;;;22.50;1.00;;;;;;4976308;28;20454;-83
2022/05/05 09:49:09;;;;;;;19.57;8.30;;;21.60;1.00;;;;;;4977097;28;20490;-81
2022/05/05 09:51:40;;;;;;;15.27;7.93;;;22.20;1.00;;;;;;4974822;28;20458;-83
2022/05/05 09:59:49;;;;;;;23.27;9.60;;;22.70;1.00;;;;;;4966991;28;20578;-82
2022/05/05 10:04:00;;;;;;;18.07;8.60;;;22.90;1.00;;;;;;4973221;28;20455;-82
2022/05/05 10:05:10;;;;;;;15.00;8.53;;;22.80;1.00;;;;;;4972290;28;20494;-81
2022/05/05 10:07:39;;;;;;;13.70;6.97;;;23.60;1.00;;;;;;4973273;28;20447;-81
2022/05/05 10:10:08;;;;;;;13.50;8.57;;;23.40;1.00;;;;;;4972571;28;20979;-83
2022/05/05 10:12:37;;;;;;;12.77;8.47;;;23.90;1.00;;;;;;4973059;28;20485;-83
2022/05/05 10:15:05;;;;;;;14.30;7.90;;;24.10;1.00;;;;;;4972593;28;20478;-84
2022/05/05 10:17:32;;;;;;;14.33;7.53;;;24.90;1.00;;;;;;4974781;28;20459;-83
2022/05/05 10:19:59;;;;;;;15.77;8.27;;;25.70;1.00;;;;;;4977603;28;20958;-83
2022/05/05 10:22:34;;;;;;;13.40;8.00;;;26.30;1.00;;;;;;4977049;28;20454;-83
2022/05/05 10:25:06;;;;;;;11.13;7.10;;;25.80;1.00;;;;;;4976336;28;20482;-83
2022/05/05 10:27:33;;;;;;;13.90;6.70;;;25.40;1.00;;;;;;4976597;28;20469;-80
2022/05/05 10:30:01;;;;;;;14.30;6.60;;;26.00;1.00;;;;;;4976140;28;20486;-80
2022/05/05 10:32:30;;;;;;;13.53;7.47;;;26.60;1.00;;;;;;4976930;28;20455;-81
2022/05/05 10:35:09;;;;;;;13.53;6.73;;;26.60;1.00;;;;;;4976715;28;20838;-80
2022/05/05 10:37:37;;;;;;;12.77;6.60;;;26.20;1.00;;;;;;4977403;28;20458;-81
2022/05/05 10:40:07;;;;;;;10.13;6.07;;;27.80;1.00;;;;;;4976649;28;20514;-80
2022/05/05 10:42:37;;;;;;;10.70;6.37;;;25.90;1.00;;;;;;4977096;28;20459;-80
2022/05/05 10:45:13;;;;;;;15.67;7.13;;;24.80;1.00;;;;;;4977686;28;20475;-81
2022/05/05 10:48:09;;;;;;;17.70;7.30;;;24.60;1.00;;;;;;4977870;28;20476;-80
2022/05/05 10:50:39;;;;;;;15.70;7.27;;;25.00;1.00;;;;;;4977318;28;20466;-81
2022/05/05 10:53:07;;;;;;;13.60;7.33;;;24.80;1.00;;;;;;4980024;28;20462;-80
2022/05/05 10:55:35;;;;;;;13.50;6.03;;;25.10;1.00;;;;;;4975962;28;20846;-79
2022/05/05 10:58:02;;;;;;;12.10;7.07;;;26.00;1.00;;;;;;4977361;28;20478;-80
2022/05/05 11:00:41;;;;;;;13.70;7.90;;;26.60;1.00;;;;;;4975735;28;21058;-80
2022/05/05 11:03:17;;;;;;;14.67;8.10;;;27.10;1.00;;;;;;4975983;28;20512;-81
2022/05/05 11:05:45;;;;;;;13.00;7.00;;;27.50;1.00;;;;;;4974886;28;20482;-81
2022/05/05 11:08:35;;;;;;;12.77;6.60;;;27.70;1.00;;;;;;4977979;28;20459;-82
2022/05/05 11:14:01;;;;;;;13.40;7.50;;;25.80;1.00;;;;;;4979146;28;20949;-82
2022/05/05 11:22:11;;;;;;;14.20;8.83;;;23.10;1.00;;;;;;4976480;28;20824;-81
2022/05/05 11:24:39;;;;;;;22.53;8.40;;;24.30;1.00;;;;;;4977166;28;20475;-81
2022/05/05 11:27:11;;;;;;;14.50;8.07;;;23.90;1.00;;;;;;4977551;28;20459;-82
2022/05/05 11:29:38;;;;;;;14.23;9.60;;;24.00;1.00;;;;;;4977172;28;20507;-83
2022/05/05 11:32:09;;;;;;;11.43;6.13;;;24.40;1.00;;;;;;4978965;28;20458;-82
2022/05/05 11:34:36;;;;;;;14.33;8.17;;;23.10;1.00;;;;;;4978306;28;20486;-81
2022/05/05 11:37:05;;;;;;;14.57;7.63;;;23.40;1.00;;;;;;4977181;28;20455;-84
2022/05/05 11:39:33;;;;;;;16.97;8.40;;;23.50;1.00;;;;;;4975250;28;20449;-83
2022/05/05 11:42:01;;;;;;;13.95;6.57;;;24.00;1.00;;;;;;4977826;28;20461;-83
2022/05/05 11:44:27;;;;;;;15.57;8.43;;;23.30;1.00;;;;;;4976561;28;20232;-82
2022/05/05 11:46:57;;;;;;;15.63;7.77;;;23.10;1.00;;;;;;4976152;28;20541;-83
2022/05/05 11:49:32;;;;;;;16.97;8.77;;;23.10;1.00;;;;;;4975052;28;20495;-82
2022/05/05 11:51:59;;;;;;;15.37;7.90;;;23.30;1.00;;;;;;4976500;28;20462;-83
2022/05/05 11:54:28;;;;;;;11.73;5.63;;;24.30;1.00;;;;;;4976759;28;20506;-82
2022/05/05 11:56:54;;;;;;;20.03;8.30;;;23.70;1.00;;;;;;4975406;28;20544;-83
2022/05/05 12:02:10;;;;;;;12.73;6.20;;;23.60;1.00;;;;;;4976120;28;20493;-83
2022/05/05 12:04:40;;;;;;;15.67;6.80;;;22.60;1.00;;;;;;4974147;28;20832;-84
2022/05/05 12:07:09;;;;;;;11.80;6.03;;;23.20;1.00;;;;;;4974905;28;20458;-82
2022/05/05 12:09:37;;;;;;;13.63;6.53;;;23.70;1.00;;;;;;4973666;28;20447;-84
2022/05/05 12:12:15;;;;;;;14.13;7.37;;;24.30;1.00;;;;;;4974361;28;20524;-83
2022/05/05 12:24:57;;;;;;;8.87;4.97;;;25.60;1.00;;;;;;4995588;28;20446;-84
2022/05/05 13:08:02;;;;;;;10.93;4.83;;;24.90;1.00;;;;;;4957958;28;20529;-84
2022/05/05 13:20:50;;;;;;;11.10;4.67;;;23.50;1.00;;;;;;4935653;29;20603;-84
2022/05/05 13:23:18;;;;;;;10.47;4.70;;;24.10;1.00;;;;;;4934116;29;20452;-84
2022/05/05 13:25:45;;;;;;;8.03;4.90;;;25.80;1.00;;;;;;4933320;29;20476;-83
2022/05/05 13:28:12;;;;;;;13.03;4.80;;;25.80;1.00;;;;;;4947919;28;20458;-84
2022/05/05 13:30:38;;;;;;;7.50;4.30;;;27.50;1.00;;;;;;4974511;28;20465;-85
2022/05/05 13:33:06;;;;;;;14.83;6.70;;;26.70;1.00;;;;;;4975004;28;20549;-85
2022/05/05 13:35:33;;;;;;;10.00;6.70;;;25.70;1.00;;;;;;4974944;28;20566;-84
2022/05/05 13:38:01;;;;;;;17.55;7.85;;;25.50;1.00;;;;;;4973590;28;20458;-85
2022/05/05 13:40:30;;;;;;;12.87;6.90;;;26.20;1.00;;;;;;4973897;28;20283;-85
2022/05/05 13:42:59;;;;;;;9.70;4.60;;;27.20;1.00;;;;;;4974537;28;20542;-85
2022/05/05 13:45:28;;;;;;;10.33;5.27;;;27.10;1.00;;;;;;4974535;28;20464;-84
2022/05/05 13:47:57;;;;;;;10.53;5.13;;;26.60;1.00;;;;;;4974406;28;20467;-84
2022/05/05 13:50:27;;;;;;;7.87;4.10;;;26.90;1.00;;;;;;4973845;28;20570;-84
2022/05/05 13:52:54;;;;;;;12.03;5.67;;;27.50;1.00;;;;;;4977255;28;20532;-84
2022/05/05 13:55:21;;;;;;;11.43;5.13;;;29.80;1.00;;;;;;4978304;28;20449;-84
2022/05/05 13:57:49;;;;;;;9.87;6.13;;;29.90;1.00;;;;;;4978069;28;20542;-84
2022/05/05 14:00:19;;;;;;;11.27;5.73;;;29.70;1.00;;;;;;4978018;28;20482;-84
2022/05/05 14:02:46;;;;;;;9.10;6.17;;;30.50;1.00;;;;;;4977855;28;20545;-84
2022/05/05 14:05:15;;;;;;;10.03;6.60;;;29.80;1.00;;;;;;4977636;28;20474;-84
2022/05/05 14:13:12;;;;;;;12.80;6.83;;;25.90;1.00;;;;;;4977987;28;20581;-85
2022/05/05 14:15:40;;;;;;;11.37;7.20;;;24.30;1.00;;;;;;4977848;28;20911;-84
2022/05/05 14:18:08;;;;;;;12.03;7.30;;;23.20;1.00;;;;;;4978003;28;20855;-83
2022/05/05 14:20:35;;;;;;;13.80;8.43;;;22.30;1.00;;;;;;4977741;28;20528;-85
2022/05/05 14:23:02;;;;;;;17.07;8.57;;;22.20;1.00;;;;;;4978168;28;20537;-85
2022/05/05 14:25:30;;;;;;;11.70;7.40;;;22.20;1.00;;;;;;4977579;28;20565;-84
2022/05/05 14:28:00;;;;;;;9.80;7.40;;;23.10;1.00;;;;;;4976938;28;20480;-84